Terminal Aerodrome Forecast
Issued by NWS

Home | Current Version | Previous Version | Text Only | Print | Product List | Glossary Off
Versions: 1 2 3 4 5 6 7 8 9 10 11 12 13 14

000
FTUS43 KIWX 292325
TAFSBN
TAF
KSBN 292325Z 3000/3024 17009KT P6SM VCSH BKN100
     FM300300 19008KT P6SM SCT030 BKN150
     FM300800 20004KT 5SM BR BKN020
     FM301500 24007KT P6SM SCT035 BKN150
     FM302200 25011KT P6SM BKN035=

USA.gov is the U.S. government's official web portal to all federal, state and local government web resources and services.